Aviation Digital Data Service (ADDS)

Output produced by METARs form (2253 UTC 21 May 2022)
found at http://www.aviationweather.gov/metar/data/
 
KRAP 211953Z 2120/2218 36015G25KT P6SM VCSH BKN040 
     FM220000 34007KT P6SM SCT060 
     FM220400 VRB03KT P6SM SKC
       
KRBG 211739Z 2118/2218 36005KT P6SM FEW025 
     FM212200 36010G16KT P6SM SKC 
     FM220400 35005KT P6SM BKN200
       
KRBL 211720Z 2118/2218 35010KT P6SM FEW250 
     FM221500 36012G20KT P6SM SCT250
       
KRDD 211720Z 2118/2218 35009KT P6SM FEW250 
     FM221500 36012G20KT P6SM SCT250
       
KRDG 211720Z 2118/2218 25009KT P6SM SCT250 
     FM220000 20006KT P6SM FEW250 
     FM220300 VRB03KT P6SM SCT150 
     FM220600 VRB03KT 5SM BR SCT200 
     FM221200 23005KT P6SM SCT200
       
KRDM 211725Z 2118/2218 33005KT P6SM FEW100 
     FM212000 34010G20KT P6SM SKC 
     FM220400 VRB03KT P6SM SCT080
       
TAF AMD KRDR 212040Z 2120/2224 VRB06KT 9999 BKN045 OVC090 QNH3015INS 
     TEMPO 2120/2124 34015G20KT 9000 -RA FEW015 SCT020 TX13/2218Z TN03/2210Z
       
KRDU 212250Z 2123/2218 20004KT P6SM VCSH OVC040 
     FM220600 20002KT 6SM BR BKN012 
     FM221300 24010KT P6SM FEW012 SCT250
       
KRIC 211720Z 2118/2218 23012G18KT P6SM SCT040 
     TEMPO 2119/2123 BKN050 
     FM220100 20008KT P6SM SCT100 
     FM221500 23008KT P6SM SCT050
       
KRIL 211738Z 2118/2218 26008KT P6SM FEW070 SCT250 
     FM220200 20009KT P6SM FEW150 SCT250 
     FM220600 VRB04KT P6SM FEW100 SCT250 
     FM221200 VRB04KT 4SM BR FEW002
       
TAF KRIV 212005Z 2120/2302 32009KT 9999 SCT035 QNH2991INS 
     TEMPO 2120/2202 32012G20KT 
     BECMG 2203/2204 31007KT 9999 SCT020 BKN030 QNH2997INS 
     BECMG 2206/2207 30005KT 9999 SCT010 BKN017 OVC020 QNH2999INS 
     TEMPO 2211/2214 BKN010 OVC015 
     BECMG 2216/2217 30006KT 9999 SCT020 QNH2998INS 
     BECMG 2219/2220 32009KT 9999 SKC QNH2993INS 
     TEMPO 2222/2302 32012G20KT TX24/2122Z TN12/2213Z
       
KRIW 211925Z 2119/2218 VRB05KT P6SM BKN050 
     FM212200 08009KT P6SM SCT060 BKN120 
     FM220900 07008KT P6SM SKC
       
KRKD 212113Z 2121/2218 VRB03KT 3/4SM BR OVC002 
     FM221400 14005KT 5SM BR BKN005
       
KRKS 211925Z 2119/2218 08010KT P6SM FEW050 
     FM220300 09010KT P6SM BKN120
       
KRME 211740Z 2118/2218 27010KT P6SM SCT050 
     FM220600 VRB03KT 6SM BR FEW003 
     TEMPO 2208/2212 3SM BR 
     FM221300 24007KT P6SM SCT050
       
KRNO 211720Z 2118/2218 VRB05KT P6SM FEW250 
     FM220000 31010KT P6SM FEW100 SCT250 
     FM220600 VRB03KT P6SM FEW250
       
KROA 212141Z 2122/2218 24008KT P6SM SCT050 OVC070 
     FM212300 19006KT P6SM SCT050 BKN090 OVC250 
     FM220200 VRB03KT P6SM SCT090 BKN250 
     FM220800 28004KT P6SM FEW035 SCT250 
     FM221500 25008KT P6SM SCT040
       
KROC 212004Z 2120/2218 26016G24KT P6SM BKN050 
     FM220000 27006KT P6SM BKN070 
     FM220300 24005KT P6SM VCSH BKN030 
     FM220700 19004KT P6SM BKN035 
     FM221500 23012G24KT P6SM VCSH BKN025 
     FM221700 27015G26KT P6SM VCSH BKN015
       
KROG 211721Z 2118/2218 02009KT P6SM VCSH OVC007 
     TEMPO 2118/2122 3SM -TSRA BR BKN005CB 
     FM212200 35012KT P6SM VCSH OVC007 
     FM220300 01010KT P6SM BKN015 
     FM220700 01010KT P6SM BKN050
       
KROW 212223Z 2122/2218 10011KT P6SM SKC 
     FM220000 07012KT P6SM FEW200 
     FM220900 03012KT P6SM SCT050
       
KRSL 211741Z 2118/2218 35015G24KT P6SM BKN080 
     FM212100 34012KT P6SM SCT100 
     FM220300 VRB05KT P6SM SCT200 
     FM221100 18007KT P6SM FEW200
       
KRST 212114Z 2121/2218 32010G17KT P6SM BKN050 
     FM220000 32009KT P6SM BKN050 
     FM220500 30006KT P6SM SCT100 
     FM221600 31011KT P6SM BKN050
       
KRSW 211734Z 2118/2218 17009KT P6SM SCT030 BKN060 
     FM212000 20011KT P6SM VCSH SCT025 BKN250 
     TEMPO 2122/2201 VRB11G24KT 3SM TSRA SCT020CB OVC030 
     FM220400 10008KT P6SM FEW025 BKN100 
     FM221500 13011KT P6SM SCT030 BKN100
       
KRUT 211728Z 2118/2218 24009KT P6SM SCT040 
     FM212200 17007KT P6SM VCSH SCT040 
     FM220200 VRB04KT P6SM SCT040 
     FM221200 18005KT P6SM FEW250 
     FM221400 22007KT P6SM FEW250
       
KRVS 211721Z 2118/2218 01014G20KT P6SM VCSH OVC015 
     FM212300 01012KT P6SM OVC035 
     FM220200 01005KT P6SM BKN050
       
KRWI 212104Z 2121/2218 21010G18KT P6SM VCTS BKN040CB 
     TEMPO 2121/2124 24025G35KT 3SM -TSRA BR BKN020CB OVC040 
     FM220100 20005KT P6SM VCSH OVC040 
     FM220600 20005KT P6SM BKN025 
     FM221300 24010KT P6SM FEW025 SCT250
       
KRWL 211720Z 2118/2218 06008KT P6SM SCT060
       
KRYY 211733Z 2118/2218 23007KT P6SM VCSH SCT030 BKN040 BKN090 
     TEMPO 2119/2123 VRB10G20KT 5SM -SHRA BKN030 
     FM220000 17006KT P6SM SCT060 
     FM221100 24004KT P6SM SCT025 
     FM221300 25005KT P6SM BKN030 
     FM221500 25005KT P6SM SCT030